Bean Station, TN (37708)

8:36 PM EDT on October 20, 2014 (GMT -0400)
Bean Station Cherokee Lake | Change Station
CLOSE
Current Station
Personal Weather Station
Location: Bean Station, TN
Elevation: 1125 ft
Nearby Weather Stations

Elev 1125 ft 36.28 °N, 83.38 °W | Updated 7 seconds ago

Mostly Cloudy
Mostly Cloudy
59.7 °F
Feels Like 59.7 °F
N
0.0
Wind Variable Wind from North
Gusts 0.0 mph

Today
High -- | Low -- °F
--% Chance of Precip.
Yesterday
High -- | Low -- °F
Precip. -- in
7:44 AM 6:50 PM
Waning Crescent, 8% visible
Pressure 30.01 in
Visibility 10.0 miles
Clouds Overcast 9000 ft
Dew Point 50 °F
Humidity 69%
Rainfall 0.00 in
Snow Depth Not available.
UV 0 out of 12
Pollen 1.60 out of 12
Ozone Good
Flu Activity Sporadic
METAR K0VG 210015Z AUTO 00000KT 10SM OVC090 14/10 A3001 RMK AO2

More Conditions Fewer Conditions

Pressure 30.01 in
Visibility 10.0 miles
Clouds Overcast 9000 ft
Dew Point 50 °F
Humidity 69%
Rainfall 0.00 in
Snow Depth Not available.
UV 0 out of 12
Pollen 1.60 out of 12
Ozone Good
Flu Activity Sporadic
METAR K0VG 210015Z AUTO 00000KT 10SM OVC090 14/10 A3001 RMK AO2

More Conditions Fewer Conditions

10-Day Weather Forecast

Almanac

Astronomy

Oct. 20, 2014 Rise Set
Actual Time 7:44 AM EDT 6:50 PM EDT
Civil Twilight 7:18 AM EDT 7:16 PM EDT
Nautical Twilight 6:48 AM EDT 7:46 PM EDT
Astronomical Twilight 6:18 AM EDT 8:16 PM EDT
Moon 4:37 AM EDT (10/20) 5:08 PM EDT (10/20)
Length of Visible Light 11h 57m
Length of Day
11h 05m
Tomorrow will be 2m 10s shorter.
Waning Crescent, 8% of the Moon is Illuminated
Today
Waning Crescent
Oct 23
New
Oct 30
First Quarter
Nov 6
Full
Nov 14
Last Quarter

Today's Extremes

State Highs State Lows

Community

WunderPhotos

Upload Photos

1,763,566 photos uploaded!

Nearby

Air Quality

  Air Quality AQ Index Pollutant
Yesterday Good
OZONE
Yesterday Good
PM2.5
Current Good
OZONE
Monday Good
PM2.5
Monday Good
OZONE
Tuesday Good
PM2.5
Tuesday Good
OZONE
Wednesday Good
PM2.5
Wednesday Good
OZONE

Snow Depth

Station Depth Elevation
No new snow has been reported.

Earthquake Activity

City Distance Mag. Time & Date
No recent earthquake activity has been reported nearby.
Minimum magnitude displayed is 2.5.

Coastal Water Temperatures

Place Temperature
No Stations Reporting

Nearby Weather Stations